JAL78 RPLL-RJTT
Flight info
| Callsign | JAL78 |
|---|---|
| Flight time | N/A |
| Altitude | 35000 |
| Route | CAB2R CAB N884 ALBAX Y533 AZAMA Y57 SUKBO Y571 BILLY Y21 AKSEL |
| Aircraft | B738/M-SDE2E3FGHIRWXY/LB1 |
Departure
| Time | N/A |
|---|---|
| Airport | Ninoy Aquino International Airport (RPLL) |
Arrival
| Time | 2026-05-05 04:30 |
|---|---|
| Airport | Tokyo Haneda International Airport (RJTT) |
| Time | Latitude | Longitude | Altitude | Speed | Heading |
|---|---|---|---|---|---|
| 2026-05-05 03:49 | 32.67339 | 136.33925 | 35169 ft | 583 kts | 44° |
| 2026-05-05 03:50 | 32.72600 | 136.40997 | 35171 ft | 582 kts | 44° |
| 2026-05-05 03:50 | 32.77905 | 136.48135 | 35173 ft | 582 kts | 44° |
| 2026-05-05 03:51 | 32.83225 | 136.55313 | 35171 ft | 584 kts | 45° |
| 2026-05-05 03:51 | 32.88381 | 136.62282 | 35172 ft | 584 kts | 44° |
| 2026-05-05 03:52 | 32.93702 | 136.69482 | 35172 ft | 585 kts | 45° |
| 2026-05-05 03:52 | 32.99050 | 136.76732 | 35173 ft | 587 kts | 45° |
| 2026-05-05 03:53 | 33.04381 | 136.83968 | 35175 ft | 588 kts | 45° |
| 2026-05-05 03:53 | 33.09717 | 136.91225 | 35174 ft | 585 kts | 45° |
| 2026-05-05 03:54 | 33.14943 | 136.98346 | 35172 ft | 589 kts | 44° |
| 2026-05-05 03:54 | 33.20180 | 137.05498 | 35176 ft | 586 kts | 45° |
| 2026-05-05 03:55 | 33.25528 | 137.12819 | 35176 ft | 586 kts | 44° |
| 2026-05-05 03:55 | 33.30846 | 137.20122 | 35173 ft | 586 kts | 45° |
| 2026-05-05 03:56 | 33.36174 | 137.27452 | 35172 ft | 586 kts | 45° |
| 2026-05-05 03:56 | 33.41553 | 137.34853 | 35169 ft | 587 kts | 44° |
| 2026-05-05 03:57 | 33.46911 | 137.42244 | 35170 ft | 587 kts | 45° |
| 2026-05-05 03:57 | 33.52240 | 137.49617 | 35166 ft | 587 kts | 44° |
| 2026-05-05 03:58 | 33.57574 | 137.57039 | 35166 ft | 588 kts | 46° |
| 2026-05-05 03:58 | 33.62476 | 137.64946 | 35165 ft | 593 kts | 54° |
| 2026-05-05 03:59 | 33.66714 | 137.73377 | 35164 ft | 593 kts | 60° |
| 2026-05-05 03:59 | 33.70672 | 137.82165 | 35159 ft | 594 kts | 61° |
| 2026-05-05 04:00 | 33.74523 | 137.90938 | 35157 ft | 596 kts | 62° |
| 2026-05-05 04:00 | 33.78408 | 137.99678 | 35157 ft | 595 kts | 61° |
| 2026-05-05 04:01 | 33.82368 | 138.08482 | 35158 ft | 596 kts | 60° |
| 2026-05-05 04:01 | 33.86322 | 138.17218 | 35157 ft | 597 kts | 60° |
| 2026-05-05 04:02 | 33.90317 | 138.26051 | 35161 ft | 597 kts | 61° |
| 2026-05-05 04:02 | 33.94280 | 138.34868 | 35162 ft | 599 kts | 60° |
| 2026-05-05 04:03 | 33.98199 | 138.43668 | 35164 ft | 598 kts | 62° |
| 2026-05-05 04:03 | 34.02127 | 138.52521 | 35163 ft | 599 kts | 60° |
| 2026-05-05 04:04 | 34.04087 | 138.56949 | 35163 ft | 586 kts | 60° |
| 2026-05-05 04:04 | 34.05959 | 138.61188 | 35058 ft | 574 kts | 61° |
| 2026-05-05 04:04 | 34.07830 | 138.65428 | 34680 ft | 568 kts | 62° |
| 2026-05-05 04:04 | 34.09689 | 138.69649 | 34159 ft | 564 kts | 62° |
| 2026-05-05 04:05 | 34.11523 | 138.73804 | 33577 ft | 561 kts | 62° |
| 2026-05-05 04:05 | 34.13364 | 138.77968 | 33016 ft | 558 kts | 61° |
| 2026-05-05 04:05 | 34.15189 | 138.82111 | 32448 ft | 557 kts | 61° |
| 2026-05-05 04:05 | 34.17009 | 138.86258 | 31854 ft | 555 kts | 61° |
| 2026-05-05 04:06 | 34.18789 | 138.90328 | 31267 ft | 554 kts | 62° |
| 2026-05-05 04:06 | 34.20579 | 138.94424 | 30681 ft | 552 kts | 61° |
| 2026-05-05 04:06 | 34.22377 | 138.98540 | 30090 ft | 551 kts | 60° |
| 2026-05-05 04:06 | 34.24164 | 139.02631 | 29488 ft | 549 kts | 61° |
| 2026-05-05 04:07 | 34.25941 | 139.06700 | 28883 ft | 547 kts | 60° |
| 2026-05-05 04:07 | 34.27695 | 139.10719 | 28278 ft | 545 kts | 61° |
| 2026-05-05 04:07 | 34.29409 | 139.14851 | 27675 ft | 543 kts | 64° |
| 2026-05-05 04:07 | 34.30962 | 139.18990 | 27049 ft | 541 kts | 65° |
| 2026-05-05 04:08 | 34.32425 | 139.23171 | 26445 ft | 538 kts | 67° |
| 2026-05-05 04:08 | 34.33833 | 139.27344 | 25852 ft | 536 kts | 67° |
| 2026-05-05 04:08 | 34.35210 | 139.31486 | 25274 ft | 532 kts | 66° |
| 2026-05-05 04:08 | 34.36586 | 139.35634 | 24684 ft | 529 kts | 66° |
| 2026-05-05 04:09 | 34.37952 | 139.39740 | 24074 ft | 526 kts | 67° |
| 2026-05-05 04:09 | 34.39319 | 139.43829 | 23501 ft | 522 kts | 65° |
| 2026-05-05 04:09 | 34.40669 | 139.47845 | 22906 ft | 519 kts | 65° |
| 2026-05-05 04:09 | 34.42034 | 139.51884 | 22327 ft | 515 kts | 66° |
| 2026-05-05 04:10 | 34.43395 | 139.55896 | 21754 ft | 511 kts | 65° |
| 2026-05-05 04:10 | 34.44739 | 139.59848 | 21168 ft | 507 kts | 65° |
| 2026-05-05 04:10 | 34.46079 | 139.63763 | 20577 ft | 502 kts | 64° |
| 2026-05-05 04:10 | 34.47573 | 139.67551 | 19997 ft | 494 kts | 58° |
| 2026-05-05 04:11 | 34.49445 | 139.70969 | 19438 ft | 480 kts | 46° |
| 2026-05-05 04:11 | 34.51761 | 139.73732 | 18890 ft | 463 kts | 33° |
| 2026-05-05 04:11 | 34.54282 | 139.75932 | 18352 ft | 451 kts | 28° |
| 2026-05-05 04:11 | 34.56919 | 139.77969 | 17813 ft | 442 kts | 26° |
| 2026-05-05 04:12 | 34.59492 | 139.79854 | 17293 ft | 433 kts | 24° |
| 2026-05-05 04:12 | 34.62069 | 139.81702 | 16779 ft | 424 kts | 24° |
| 2026-05-05 04:12 | 34.64570 | 139.83482 | 16285 ft | 415 kts | 23° |
| 2026-05-05 04:12 | 34.67140 | 139.84953 | 15791 ft | 399 kts | 14° |
| 2026-05-05 04:13 | 34.69743 | 139.85902 | 15311 ft | 386 kts | 7° |
| 2026-05-05 04:13 | 34.72352 | 139.86502 | 14835 ft | 374 kts | 3° |
| 2026-05-05 04:13 | 34.74912 | 139.86909 | 14374 ft | 365 kts | 1° |
| 2026-05-05 04:13 | 34.77399 | 139.87233 | 13930 ft | 356 kts | 1° |
| 2026-05-05 04:14 | 34.79869 | 139.87537 | 13492 ft | 348 kts | 1° |
| 2026-05-05 04:14 | 34.82239 | 139.87836 | 13067 ft | 341 kts | 1° |
| 2026-05-05 04:14 | 34.84585 | 139.88145 | 12645 ft | 334 kts | 1° |
| 2026-05-05 04:14 | 34.86888 | 139.88461 | 12225 ft | 328 kts | 2° |
| 2026-05-05 04:15 | 34.89147 | 139.88777 | 11817 ft | 322 kts | 2° |
| 2026-05-05 04:15 | 34.91336 | 139.89087 | 11421 ft | 316 kts | 2° |
| 2026-05-05 04:15 | 34.93514 | 139.89378 | 11025 ft | 310 kts | 1° |
| 2026-05-05 04:15 | 34.95666 | 139.89342 | 10628 ft | 302 kts | 350° |
| 2026-05-05 04:16 | 34.97706 | 139.88827 | 10249 ft | 296 kts | 343° |
| 2026-05-05 04:16 | 34.99648 | 139.88139 | 10061 ft | 284 kts | 342° |
| 2026-05-05 04:16 | 35.01517 | 139.87456 | 9780 ft | 279 kts | 342° |
| 2026-05-05 04:16 | 35.03397 | 139.86807 | 9383 ft | 277 kts | 343° |
| 2026-05-05 04:17 | 35.05244 | 139.86208 | 9036 ft | 274 kts | 344° |
| 2026-05-05 04:17 | 35.07091 | 139.85623 | 8694 ft | 271 kts | 344° |
| 2026-05-05 04:17 | 35.08917 | 139.85048 | 8358 ft | 268 kts | 344° |
| 2026-05-05 04:17 | 35.10701 | 139.84485 | 8058 ft | 265 kts | 344° |
| 2026-05-05 04:18 | 35.12437 | 139.83937 | 7868 ft | 258 kts | 344° |
| 2026-05-05 04:18 | 35.14161 | 139.83391 | 7556 ft | 256 kts | 344° |
| 2026-05-05 04:18 | 35.15862 | 139.82851 | 7187 ft | 257 kts | 344° |
| 2026-05-05 04:18 | 35.17582 | 139.82306 | 6808 ft | 258 kts | 344° |
| 2026-05-05 04:19 | 35.19332 | 139.81751 | 6456 ft | 257 kts | 344° |
| 2026-05-05 04:19 | 35.21040 | 139.81209 | 6121 ft | 257 kts | 345° |
| 2026-05-05 04:19 | 35.22752 | 139.80666 | 5839 ft | 254 kts | 345° |
| 2026-05-05 04:19 | 35.24452 | 139.80125 | 5527 ft | 252 kts | 345° |
| 2026-05-05 04:20 | 35.26160 | 139.79582 | 5193 ft | 251 kts | 345° |
| 2026-05-05 04:20 | 35.27788 | 139.79063 | 4919 ft | 248 kts | 345° |
| 2026-05-05 04:20 | 35.29484 | 139.78526 | 4538 ft | 251 kts | 346° |
| 2026-05-05 04:20 | 35.31222 | 139.78181 | 4064 ft | 255 kts | 0° |
| 2026-05-05 04:21 | 35.32903 | 139.78662 | 3791 ft | 251 kts | 26° |
| 2026-05-05 04:21 | 35.34364 | 139.79776 | 3530 ft | 248 kts | 34° |
| 2026-05-05 04:21 | 35.35744 | 139.80960 | 3286 ft | 243 kts | 34° |
| 2026-05-05 04:21 | 35.37144 | 139.82114 | 3051 ft | 239 kts | 32° |
| 2026-05-05 04:22 | 35.38072 | 139.82848 | 2895 ft | 236 kts | 32° |
| 2026-05-05 04:22 | 35.39861 | 139.84233 | 2667 ft | 227 kts | 31° |
| 2026-05-05 04:22 | 35.41199 | 139.85075 | 2642 ft | 214 kts | 18° |
| 2026-05-05 04:22 | 35.42638 | 139.85323 | 2473 ft | 211 kts | 359° |
| 2026-05-05 04:23 | 35.44072 | 139.85144 | 2477 ft | 212 kts | 355° |
| 2026-05-05 04:23 | 35.45398 | 139.85349 | 2467 ft | 211 kts | 22° |
| 2026-05-05 04:23 | 35.46497 | 139.86427 | 2473 ft | 216 kts | 54° |
| 2026-05-05 04:23 | 35.46952 | 139.88292 | 2470 ft | 221 kts | 90° |
| 2026-05-05 04:24 | 35.46502 | 139.90067 | 2440 ft | 226 kts | 122° |
| 2026-05-05 04:24 | 35.45347 | 139.91283 | 2344 ft | 219 kts | 155° |
| 2026-05-05 04:24 | 35.43884 | 139.91565 | 2293 ft | 209 kts | 183° |
| 2026-05-05 04:25 | 35.41573 | 139.90880 | 2291 ft | 206 kts | 205° |
| 2026-05-05 04:25 | 35.40007 | 139.89629 | 2291 ft | 205 kts | 225° |
| 2026-05-05 04:25 | 35.39186 | 139.88297 | 2286 ft | 196 kts | 251° |
| 2026-05-05 04:25 | 35.39057 | 139.86758 | 2280 ft | 177 kts | 288° |
| 2026-05-05 04:26 | 35.39692 | 139.85582 | 2283 ft | 171 kts | 324° |
| 2026-05-05 04:26 | 35.40687 | 139.84868 | 2285 ft | 169 kts | 338° |
| 2026-05-05 04:26 | 35.41767 | 139.84402 | 2285 ft | 166 kts | 349° |
| 2026-05-05 04:26 | 35.42856 | 139.84166 | 2282 ft | 170 kts | 352° |
| 2026-05-05 04:27 | 35.43979 | 139.83913 | 2120 ft | 170 kts | 349° |
| 2026-05-05 04:27 | 35.45078 | 139.83597 | 1932 ft | 155 kts | 347° |
| 2026-05-05 04:27 | 35.46057 | 139.83244 | 1684 ft | 143 kts | 341° |
| 2026-05-05 04:27 | 35.46904 | 139.82803 | 1524 ft | 141 kts | 336° |
| 2026-05-05 04:28 | 35.47807 | 139.82280 | 1324 ft | 138 kts | 335° |
| 2026-05-05 04:28 | 35.48624 | 139.81776 | 1153 ft | 139 kts | 335° |
| 2026-05-05 04:28 | 35.49480 | 139.81235 | 968 ft | 137 kts | 333° |
| 2026-05-05 04:28 | 35.50317 | 139.80699 | 787 ft | 137 kts | 333° |
| 2026-05-05 04:29 | 35.51153 | 139.80158 | 612 ft | 139 kts | 332° |
| 2026-05-05 04:29 | 35.52007 | 139.79666 | 405 ft | 139 kts | 338° |
| 2026-05-05 04:29 | 35.52835 | 139.79161 | 260 ft | 136 kts | 329° |
| 2026-05-05 04:29 | 35.53635 | 139.78581 | 88 ft | 138 kts | 330° |
| 2026-05-05 04:30 | 35.54445 | 139.78006 | 15 ft | 125 kts | 328° |
| 2026-05-05 04:30 | 35.55051 | 139.77580 | 33 ft | 73 kts | 329° |
| 2026-05-05 04:30 | 35.55290 | 139.77301 | 29 ft | 29 kts | 296° |
| 2026-05-05 04:30 | 35.55192 | 139.77199 | 26 ft | 21 kts | 195° |
| 2026-05-05 04:31 | 35.55129 | 139.77068 | 28 ft | 16 kts | 237° |
| 2026-05-05 04:31 | 35.55074 | 139.76955 | 28 ft | 15 kts | 240° |
| 2026-05-05 04:31 | 35.55006 | 139.76857 | 25 ft | 13 kts | 168° |
| 2026-05-05 04:31 | 35.54939 | 139.76903 | 25 ft | 0 kts | 148° |
| 2026-05-05 04:32 | 35.54945 | 139.76898 | 25 ft | 2 kts | 149° |
| 2026-05-05 04:32 | 35.54951 | 139.76894 | 25 ft | 0 kts | 151° |